Time;durP1;ratioP1;P1;durP2;ratioP2;P2;SDS_P1;SDS_P2;PMS_P1;PMS_P2;Temp;Humidity;BMP_temperature;BMP_pressure;BME280_temperature;BME280_humidity;BME280_pressure;Samples;Min_cycle;Max_cycle;Signal;HPM_P1;HPM_P2
2024/02/03 00:00:40;;;;;;;34.38;5.72;;;;;;;7.25;100.00;99974.81;5053503;28;20448;-71
2024/02/03 00:03:06;;;;;;;45.72;7.20;;;;;;;7.19;100.00;99978.31;5055892;28;20032;-71
2024/02/03 00:05:31;;;;;;;54.72;7.32;;;;;;;7.16;100.00;99954.63;5037982;28;20037;-72
2024/02/03 00:07:57;;;;;;;56.15;8.98;;;;;;;7.12;100.00;99938.16;5054751;28;20037;-71
2024/02/03 00:10:22;;;;;;;43.60;7.53;;;;;;;7.15;100.00;99936.91;5054584;28;20036;-72
2024/02/03 00:12:47;;;;;;;58.50;8.35;;;;;;;7.11;100.00;99949.03;5055319;28;20056;-70
2024/02/03 00:15:13;;;;;;;58.10;8.60;;;;;;;7.04;100.00;99924.91;5055574;28;20056;-71
2024/02/03 00:17:39;;;;;;;59.42;8.75;;;;;;;7.03;100.00;99934.78;5039185;28;20563;-71
2024/02/03 00:20:08;;;;;;;46.72;6.68;;;;;;;7.01;100.00;99904.72;5055803;28;20052;-70
2024/02/03 00:22:33;;;;;;;55.95;9.07;;;;;;;7.04;100.00;99947.13;5056304;28;20033;-71
2024/02/03 00:25:00;;;;;;;53.00;8.25;;;;;;;7.04;100.00;99938.28;5055780;28;20025;-71
2024/02/03 00:27:25;;;;;;;65.53;8.95;;;;;;;7.05;100.00;99940.78;5072219;28;20024;-71
2024/02/03 00:29:51;;;;;;;66.07;9.65;;;;;;;7.01;100.00;99939.50;5056267;28;20531;-70
2024/02/03 00:32:16;;;;;;;63.58;8.43;;;;;;;6.99;100.00;99930.88;5056429;28;20032;-71
2024/02/03 00:34:44;;;;;;;57.03;8.07;;;;;;;6.89;100.00;99926.88;5052969;28;20028;-71
2024/02/03 00:37:09;;;;;;;68.32;9.93;;;;;;;6.90;100.00;99937.41;5034843;28;20053;-70
2024/02/03 00:39:34;;;;;;;66.43;10.07;;;;;;;6.85;100.00;99939.81;5057217;28;20087;-71
2024/02/03 00:42:00;;;;;;;47.92;7.13;;;;;;;6.85;100.00;99937.13;5058681;28;20044;-71
2024/02/03 00:44:27;;;;;;;63.85;9.68;;;;;;;6.86;100.00;99941.50;5059675;28;20041;-70
2024/02/03 00:46:52;;;;;;;48.47;8.25;;;;;;;6.73;100.00;99928.84;5058422;28;20043;-71
2024/02/03 00:49:18;;;;;;;57.40;9.35;;;;;;;6.86;100.00;99941.50;5058333;28;20028;-71
2024/02/03 00:51:45;;;;;;;64.30;8.65;;;;;;;6.82;100.00;99930.38;5058539;28;20522;-71
2024/02/03 00:54:10;;;;;;;53.50;7.70;;;;;;;6.75;100.00;99907.25;5042984;28;20043;-71
2024/02/03 00:56:36;;;;;;;36.80;7.18;;;;;;;6.79;100.00;99898.66;5075748;28;20041;-70
2024/02/03 00:59:02;;;;;;;55.97;7.78;;;;;;;6.89;100.00;99916.19;5058536;28;20033;-71
2024/02/03 01:01:27;;;;;;;44.17;6.97;;;;;;;6.82;100.00;99906.28;5060394;28;20055;-71
2024/02/03 01:03:52;;;;;;;48.95;7.13;;;;;;;6.87;100.00;99910.22;5060643;28;20033;-71
2024/02/03 01:06:18;;;;;;;51.05;8.85;;;;;;;6.90;100.00;99910.66;5043115;28;20025;-70
2024/02/03 01:08:44;;;;;;;48.85;8.20;;;;;;;6.87;100.00;99904.88;5061081;28;20033;-70
2024/02/03 01:11:10;;;;;;;58.75;8.43;;;;;;;6.87;100.00;99915.56;5060051;28;20430;-71
2024/02/03 01:13:35;;;;;;;54.10;7.32;;;;;;;6.78;100.00;99918.38;5043220;28;20033;-70
2024/02/03 01:16:00;;;;;;;58.90;7.72;;;;;;;6.82;100.00;99902.78;5060681;28;20244;-70
2024/02/03 01:18:26;;;;;;;47.13;6.95;;;;;;;6.81;100.00;99911.81;5059374;28;20507;-70
2024/02/03 01:20:51;;;;;;;58.25;8.43;;;;;;;6.77;100.00;99918.59;5059969;28;20029;-72
2024/02/03 01:23:17;;;;;;;37.70;5.80;;;;;;;6.81;100.00;99935.88;5059734;28;20059;-70
2024/02/03 01:25:43;;;;;;;38.42;7.18;;;;;;;6.64;100.00;99913.97;5043278;28;20033;-70
2024/02/03 01:28:08;;;;;;;50.83;8.05;;;;;;;6.68;100.00;99906.38;5060570;28;20028;-71
2024/02/03 01:30:34;;;;;;;44.13;6.80;;;;;;;6.79;100.00;99925.41;5060098;28;20495;-71
2024/02/03 01:32:59;;;;;;;65.68;9.38;;;;;;;6.79;100.00;99924.59;5059131;28;20037;-71
2024/02/03 01:35:24;;;;;;;45.88;7.18;;;;;;;6.77;100.00;99919.41;5058354;28;20086;-71
2024/02/03 01:37:50;;;;;;;46.72;7.07;;;;;;;6.71;100.00;99914.03;5059464;28;20059;-71
2024/02/03 01:40:15;;;;;;;71.47;11.30;;;;;;;6.80;100.00;99926.22;5059143;28;20041;-71
2024/02/03 01:42:41;;;;;;;62.80;8.65;;;;;;;6.78;100.00;99922.91;5058968;28;20033;-70
2024/02/03 01:45:07;;;;;;;53.50;8.45;;;;;;;6.16;100.00;99838.19;5042238;28;20033;-70
2024/02/03 01:47:32;;;;;;;43.95;7.57;;;;;;;6.69;100.00;99927.59;5060602;28;20029;-70
2024/02/03 01:50:01;;;;;;;49.75;7.72;;;;;;;6.81;100.00;99946.59;5042090;28;20045;-70
2024/02/03 01:52:26;;;;;;;46.95;7.57;;;;;;;6.80;100.00;99959.13;5060498;28;20028;-71
2024/02/03 01:54:52;;;;;;;43.03;7.72;;;;;;;6.73;100.00;99958.25;5060121;28;20043;-70
2024/02/03 01:57:20;;;;;;;67.18;9.75;;;;;;;6.82;100.00;99970.47;5075048;28;20037;-70
2024/02/03 01:59:45;;;;;;;55.35;8.73;;;;;;;6.78;100.00;99992.44;5059448;28;20025;-70
2024/02/03 02:02:11;;;;;;;53.97;9.10;;;;;;;6.77;100.00;99980.09;5060503;28;20380;-72
2024/02/03 02:04:36;;;;;;;51.85;8.32;;;;;;;6.72;100.00;99979.81;5059613;28;20025;-70
2024/02/03 02:07:02;;;;;;;54.47;8.90;;;;;;;6.71;100.00;99987.03;5059716;28;20373;-71
2024/02/03 02:09:29;;;;;;;62.92;9.52;;;;;;;6.68;100.00;99983.91;5059592;28;20108;-71
2024/02/03 02:11:55;;;;;;;55.90;8.95;;;;;;;6.58;100.00;99982.41;5058205;28;20035;-73
2024/02/03 02:14:22;;;;;;;52.88;8.30;;;;;;;6.59;100.00;99984.06;5059148;28;20029;-71
2024/02/03 02:16:49;;;;;;;52.45;9.48;;;;;;;6.47;100.00;99972.25;5058854;28;20059;-70
2024/02/03 02:19:16;;;;;;;42.53;6.82;;;;;;;6.54;100.00;99991.84;5075351;28;20056;-71
2024/02/03 02:21:42;;;;;;;60.30;9.35;;;;;;;6.58;100.00;99993.09;5058968;28;20051;-71
2024/02/03 02:24:08;;;;;;;57.78;8.23;;;;;;;6.55;100.00;99988.13;5058054;28;20025;-70
2024/02/03 02:26:33;;;;;;;56.17;8.80;;;;;;;6.58;100.00;99981.56;5058941;28;20029;-70
2024/02/03 02:28:59;;;;;;;46.92;7.32;;;;;;;6.45;100.00;99973.44;5059212;28;20029;-71
2024/02/03 02:31:24;;;;;;;60.65;9.15;;;;;;;6.56;100.00;99995.16;5058046;28;20040;-70
2024/02/03 02:33:50;;;;;;;52.50;7.50;;;;;;;6.58;100.00;100000.28;5057849;28;20399;-71
2024/02/03 02:36:16;;;;;;;44.65;6.72;;;;;;;6.58;100.00;100000.28;5059972;28;20021;-72
2024/02/03 02:38:41;;;;;;;51.38;8.52;;;;;;;6.55;100.00;100004.16;5058647;28;20025;-71
2024/02/03 02:41:09;;;;;;;53.78;7.97;;;;;;;6.63;100.00;100002.41;5058209;28;20251;-71
2024/02/03 02:43:34;;;;;;;47.60;7.30;;;;;;;6.54;100.00;99973.13;5058901;28;20060;-71
2024/02/03 02:45:59;;;;;;;44.08;6.85;;;;;;;6.68;100.00;99999.97;5057459;28;20032;-71
2024/02/03 02:48:25;;;;;;;52.42;7.40;;;;;;;6.68;100.00;99997.28;5058178;28;20030;-71
2024/02/03 02:50:50;;;;;;;47.55;7.05;;;;;;;6.73;100.00;100001.03;5056793;28;20025;-71
2024/02/03 02:53:15;;;;;;;53.00;8.73;;;;;;;6.78;100.00;99992.44;5058109;28;20112;-71
2024/02/03 02:55:40;;;;;;;55.80;7.90;;;;;;;6.77;100.00;99977.41;5057135;28;20029;-72
2024/02/03 02:58:07;;;;;;;41.90;7.47;;;;;;;6.77;100.00;99985.44;5056706;28;20492;-71
2024/02/03 03:00:32;;;;;;;51.03;8.50;;;;;;;6.80;100.00;99982.38;5057130;28;20075;-72
2024/02/03 03:02:58;;;;;;;43.17;7.28;;;;;;;6.74;100.00;99978.63;5057990;28;20032;-71
2024/02/03 03:05:23;;;;;;;49.60;8.55;;;;;;;6.85;100.00;99998.66;5058826;28;20064;-72
2024/02/03 03:07:49;;;;;;;48.58;8.13;;;;;;;6.83;100.00;100016.75;5056937;28;20044;-70
2024/02/03 03:10:15;;;;;;;47.25;7.35;;;;;;;6.60;100.00;100011.63;5058009;28;20075;-70
2024/02/03 03:12:40;;;;;;;44.10;7.82;;;;;;;6.67;100.00;100051.78;5057715;28;20487;-71
2024/02/03 03:15:06;;;;;;;38.05;5.90;;;;;;;6.52;100.00;100042.00;5059332;28;20055;-71
2024/02/03 03:17:31;;;;;;;46.80;6.82;;;;;;;6.65;100.00;100065.31;5058959;28;20132;-70
2024/02/03 03:19:57;;;;;;;44.28;7.75;;;;;;;6.57;100.00;100060.13;5060227;28;20136;-71
2024/02/03 03:22:22;;;;;;;56.10;8.38;;;;;;;6.55;100.00;100072.84;5060321;28;20055;-72
2024/02/03 03:24:47;;;;;;;48.55;8.15;;;;;;;6.54;100.00;100068.53;5060648;28;20056;-71
2024/02/03 03:27:13;;;;;;;52.35;8.40;;;;;;;6.52;100.00;100073.22;5059467;28;20049;-71
2024/02/03 03:29:38;;;;;;;54.90;8.02;;;;;;;6.38;100.00;100069.59;5059759;28;20044;-72
2024/02/03 03:32:04;;;;;;;51.05;7.90;;;;;;;6.30;100.00;100067.06;5059357;28;20042;-71
2024/02/03 03:34:29;;;;;;;52.55;7.00;;;;;;;6.28;100.00;100066.41;5059247;28;20562;-72
2024/02/03 03:36:55;;;;;;;47.92;8.32;;;;;;;6.28;100.00;100069.06;5061480;28;20031;-71
2024/02/03 03:39:20;;;;;;;44.72;7.53;;;;;;;6.30;100.00;100069.72;5064139;28;20044;-71
2024/02/03 03:41:46;;;;;;;54.78;8.88;;;;;;;6.34;100.00;100071.00;5061191;28;20049;-71
2024/02/03 03:44:11;;;;;;;43.40;6.90;;;;;;;6.39;100.00;100078.44;5074318;28;20581;-70
2024/02/03 03:46:38;;;;;;;43.22;8.23;;;;;;;6.46;100.00;100057.97;5085257;28;20031;-70
2024/02/03 03:49:03;;;;;;;47.28;8.57;;;;;;;6.48;100.00;100046.03;5086435;28;20037;-70
2024/02/03 03:51:29;;;;;;;47.35;6.00;;;;;;;6.53;100.00;100037.47;5085153;28;20052;-70
2024/02/03 03:53:54;;;;;;;50.17;7.68;;;;;;;6.55;100.00;100035.41;5050572;28;20481;-71
2024/02/03 03:56:20;;;;;;;45.47;8.15;;;;;;;6.64;100.00;100036.13;5058569;28;20047;-70
2024/02/03 03:58:45;;;;;;;52.67;7.47;;;;;;;6.66;100.00;100023.41;5058619;28;20051;-70
2024/02/03 04:01:11;;;;;;;54.78;8.75;;;;;;;6.65;100.00;100019.88;5028261;28;20053;-70
2024/02/03 04:03:37;;;;;;;47.83;8.05;;;;;;;6.64;100.00;100026.25;5062133;28;20024;-70
2024/02/03 04:06:02;;;;;;;62.25;9.07;;;;;;;6.43;100.00;99981.66;5044161;28;20032;-69
2024/02/03 04:08:28;;;;;;;58.67;9.07;;;;;;;6.61;100.00;100012.44;5061253;28;20366;-70
2024/02/03 04:10:54;;;;;;;59.25;8.68;;;;;;;6.61;100.00;100028.50;5058860;28;20619;-69
2024/02/03 04:13:20;;;;;;;58.10;9.18;;;;;;;6.57;100.00;100033.41;5062816;28;20029;-70
2024/02/03 04:15:45;;;;;;;56.13;9.13;;;;;;;6.57;100.00;100044.91;5060467;28;20021;-69
2024/02/03 04:18:11;;;;;;;48.00;7.03;;;;;;;6.55;100.00;100038.09;5044365;28;20057;-71
2024/02/03 04:20:36;;;;;;;44.83;7.38;;;;;;;6.39;100.00;99999.13;5061088;28;20045;-69
2024/02/03 04:23:02;;;;;;;53.00;8.73;;;;;;;6.50;100.00;100001.25;5044360;28;20029;-70
2024/02/03 04:25:29;;;;;;;59.75;9.95;;;;;;;6.54;100.00;100018.56;5077631;28;20025;-71
2024/02/03 04:27:54;;;;;;;62.30;8.93;;;;;;;6.56;100.00;100015.72;5041276;28;20030;-70
2024/02/03 04:30:20;;;;;;;61.50;10.07;;;;;;;6.43;100.00;99997.72;5040982;28;20033;-70
2024/02/03 04:32:45;;;;;;;55.00;9.43;;;;;;;6.40;100.00;100011.44;5058762;28;20036;-71
2024/02/03 04:35:11;;;;;;;57.33;8.32;;;;;;;6.52;100.00;100038.47;5085474;28;20028;-72
2024/02/03 04:37:37;;;;;;;59.53;10.10;;;;;;;6.19;100.00;99995.41;5069679;28;20043;-70
2024/02/03 04:40:03;;;;;;;49.58;7.65;;;;;;;6.44;100.00;100025.25;5061694;28;20029;-72
2024/02/03 04:42:29;;;;;;;50.28;7.63;;;;;;;6.49;100.00;100038.84;5062809;28;20033;-70
2024/02/03 04:44:54;;;;;;;45.63;7.13;;;;;;;6.45;100.00;100040.25;5062062;28;20154;-69
2024/02/03 04:47:21;;;;;;;60.83;8.68;;;;;;;6.36;100.00;100044.91;5063433;28;20463;-70
2024/02/03 04:49:46;;;;;;;42.92;7.22;;;;;;;6.43;100.00;100053.00;5061281;28;20072;-67
2024/02/03 04:52:12;;;;;;;47.20;8.15;;;;;;;6.38;100.00;100056.22;5062758;28;20036;-68
2024/02/03 04:54:38;;;;;;;44.95;7.45;;;;;;;6.42;100.00;100048.66;5061440;28;20028;-66
2024/02/03 04:57:03;;;;;;;70.65;9.95;;;;;;;6.32;100.00;100056.97;5060724;28;20040;-68
2024/02/03 04:59:28;;;;;;;69.32;11.63;;;;;;;6.36;100.00;100050.25;5061239;28;20041;-68
2024/02/03 05:01:54;;;;;;;69.55;9.45;;;;;;;6.33;100.00;100050.66;5060520;28;20068;-68
2024/02/03 05:04:19;;;;;;;51.08;8.15;;;;;;;6.27;100.00;100051.41;5059931;28;20044;-69
2024/02/03 05:06:45;;;;;;;65.95;9.43;;;;;;;6.32;100.00;100062.31;5063095;28;20039;-69
2024/02/03 05:09:11;;;;;;;57.75;9.43;;;;;;;6.17;100.00;100053.56;5059954;28;20048;-68
2024/02/03 05:11:36;;;;;;;65.90;9.35;;;;;;;6.28;100.00;100085.94;5051286;28;20041;-69
2024/02/03 05:14:01;;;;;;;58.40;9.85;;;;;;;6.27;100.00;100080.78;5060404;28;20117;-69
2024/02/03 05:16:27;;;;;;;59.58;9.23;;;;;;;6.27;100.00;100075.44;5059022;28;20033;-68
2024/02/03 05:18:53;;;;;;;53.90;7.93;;;;;;;6.09;100.00;100047.31;5058422;28;20053;-70
2024/02/03 05:21:18;;;;;;;49.45;8.00;;;;;;;6.35;100.00;100077.97;5058793;28;20032;-69
2024/02/03 05:23:44;;;;;;;62.13;9.55;;;;;;;6.25;100.00;100035.53;5041851;28;20480;-73
2024/02/03 05:26:10;;;;;;;71.18;10.48;;;;;;;6.39;100.00;100059.72;5061301;28;20036;-69
2024/02/03 05:28:36;;;;;;;57.58;10.18;;;;;;;6.39;100.00;100052.56;5061904;28;20032;-70
2024/02/03 05:31:01;;;;;;;61.78;10.52;;;;;;;6.26;100.00;100044.41;5061976;28;20033;-69
2024/02/03 05:33:26;;;;;;;68.22;10.68;;;;;;;6.40;100.00;100066.75;5062013;28;20036;-70
2024/02/03 05:35:52;;;;;;;49.28;7.60;;;;;;;6.40;100.00;100080.94;5060583;28;20029;-71
2024/02/03 05:38:17;;;;;;;58.78;8.75;;;;;;;6.31;100.00;100074.88;5061889;28;20032;-72
2024/02/03 05:40:43;;;;;;;65.10;9.60;;;;;;;6.30;100.00;100094.59;5061461;28;20037;-71
2024/02/03 05:43:08;;;;;;;61.22;9.38;;;;;;;6.30;100.00;100075.88;5061666;28;20388;-71
2024/02/03 05:45:34;;;;;;;64.38;9.65;;;;;;;6.27;100.00;100064.75;5064049;28;20437;-69
2024/02/03 05:47:59;;;;;;;64.32;10.63;;;;;;;6.29;100.00;100052.00;5062209;28;20392;-69
2024/02/03 05:50:26;;;;;;;49.72;8.60;;;;;;;6.29;100.00;100058.22;5043686;28;20106;-70
2024/02/03 05:52:51;;;;;;;60.33;10.70;;;;;;;6.23;100.00;100052.81;5060296;28;20128;-70
2024/02/03 05:55:17;;;;;;;58.67;8.27;;;;;;;6.28;100.00;100063.72;5061452;28;20511;-71
2024/02/03 05:57:53;;;;;;;55.92;9.55;;;;;;;6.28;100.00;100063.72;5065100;28;20097;-71
2024/02/03 06:00:19;;;;;;;59.25;9.23;;;;;;;6.22;100.00;100067.16;5064058;28;20044;-70
2024/02/03 06:02:45;;;;;;;61.10;8.75;;;;;;;6.22;100.00;100051.94;5065857;28;20431;-71
2024/02/03 06:05:11;;;;;;;48.13;7.95;;;;;;;6.23;100.00;100055.47;5067776;28;20029;-71
2024/02/03 06:07:36;;;;;;;55.08;8.88;;;;;;;5.76;100.00;99976.63;5067563;28;20698;-72
2024/02/03 06:10:01;;;;;;;51.22;8.80;;;;;;;6.18;100.00;100050.69;5065730;28;20089;-71
2024/02/03 06:12:26;;;;;;;66.20;10.45;;;;;;;6.15;100.00;100052.91;5068425;28;20033;-70
2024/02/03 06:14:52;;;;;;;47.70;7.75;;;;;;;6.18;100.00;100048.00;5065212;28;20029;-72
2024/02/03 06:17:17;;;;;;;49.35;8.02;;;;;;;6.23;100.00;100047.44;5060555;28;20551;-69
2024/02/03 06:19:43;;;;;;;62.92;10.60;;;;;;;6.22;100.00;100043.09;5058810;28;20096;-72
2024/02/03 06:22:08;;;;;;;54.08;9.15;;;;;;;6.21;100.00;100050.31;5059741;28;20095;-70
2024/02/03 06:24:33;;;;;;;54.83;8.82;;;;;;;6.19;100.00;100062.19;5060812;28;20033;-71
2024/02/03 06:26:59;;;;;;;65.05;11.45;;;;;;;6.13;100.00;100038.94;5059670;28;20185;-72
2024/02/03 06:29:24;;;;;;;61.55;9.85;;;;;;;6.23;100.00;100052.81;5043222;28;20024;-69
2024/02/03 06:31:49;;;;;;;55.20;8.32;;;;;;;6.06;100.00;100036.16;5060961;28;20025;-70
2024/02/03 06:34:15;;;;;;;56.63;9.25;;;;;;;6.21;100.00;100062.84;5036991;28;20032;-69
2024/02/03 06:36:40;;;;;;;55.42;9.75;;;;;;;6.17;100.00;100058.88;5040609;28;20033;-69
2024/02/03 06:39:06;;;;;;;66.05;9.52;;;;;;;6.15;100.00;100055.56;5058803;28;20047;-69
2024/02/03 06:41:32;;;;;;;66.55;10.73;;;;;;;6.12;100.00;100062.09;5059468;28;20037;-70
2024/02/03 06:43:57;;;;;;;60.70;9.32;;;;;;;6.13;100.00;100058.44;5060940;28;20036;-69
2024/02/03 06:46:23;;;;;;;73.65;10.65;;;;;;;5.94;100.00;100029.66;5042985;28;20088;-71
2024/02/03 06:48:48;;;;;;;53.45;9.57;;;;;;;6.11;100.00;100034.56;5060226;28;20079;-70
2024/02/03 06:51:15;;;;;;;57.33;9.00;;;;;;;6.10;100.00;100038.28;5076589;28;20040;-70
2024/02/03 06:53:40;;;;;;;66.22;10.85;;;;;;;6.15;100.00;100042.22;5059177;28;20025;-71
2024/02/03 06:56:08;;;;;;;56.00;10.57;;;;;;;5.95;100.00;100008.09;5061233;28;20124;-70
2024/02/03 06:58:33;;;;;;;51.22;7.05;;;;;;;6.13;100.00;100046.94;5061218;28;20033;-70
2024/02/03 07:00:58;;;;;;;44.67;8.88;;;;;;;6.16;100.00;100052.72;5060196;28;20048;-70
2024/02/03 07:03:24;;;;;;;59.42;10.13;;;;;;;6.13;100.00;100062.97;5043364;28;20050;-70
2024/02/03 07:05:49;;;;;;;54.30;9.23;;;;;;;6.14;100.00;100064.59;5060659;28;20025;-72
2024/02/03 07:08:16;;;;;;;54.50;9.18;;;;;;;6.15;100.00;100067.06;5061659;28;20044;-71
2024/02/03 07:10:41;;;;;;;63.15;9.63;;;;;;;5.86;100.00;100030.56;5060208;28;20083;-70
2024/02/03 07:13:07;;;;;;;55.92;8.90;;;;;;;5.87;100.00;100045.56;5059975;28;20040;-70
2024/02/03 07:15:37;;;;;;;65.70;9.65;;;;;;;6.07;100.00;100076.03;5059624;28;20119;-70
2024/02/03 07:18:03;;;;;;;64.47;10.02;;;;;;;6.07;100.00;100081.38;5059274;28;20053;-68
2024/02/03 07:20:28;;;;;;;60.50;9.38;;;;;;;6.04;100.00;100065.72;5043907;28;20583;-69
2024/02/03 07:22:55;;;;;;;62.95;9.52;;;;;;;6.06;100.00;100081.56;5060919;28;20033;-70
2024/02/03 07:25:21;;;;;;;43.70;7.50;;;;;;;5.95;100.00;100050.81;5040678;28;20067;-70
2024/02/03 07:27:46;;;;;;;53.35;9.15;;;;;;;6.10;100.00;100078.34;5038267;28;20043;-70
2024/02/03 07:30:12;;;;;;;53.85;10.13;;;;;;;5.89;100.00;100046.19;5024509;28;20054;-71
2024/02/03 07:32:37;;;;;;;58.13;8.93;;;;;;;6.03;100.00;100065.94;5059606;28;20088;-69
2024/02/03 07:35:03;;;;;;;67.00;10.05;;;;;;;6.08;100.00;100093.72;5060367;28;20028;-70
2024/02/03 07:37:29;;;;;;;56.63;9.98;;;;;;;6.09;100.00;100090.03;5059938;28;20041;-70
2024/02/03 07:39:54;;;;;;;51.58;7.93;;;;;;;6.10;100.00;100099.72;5042932;28;20035;-69
2024/02/03 07:42:19;;;;;;;49.17;9.05;;;;;;;6.15;100.00;100114.34;5059781;28;20033;-71
2024/02/03 07:44:45;;;;;;;60.53;9.75;;;;;;;6.05;100.00;100098.59;5060849;28;20028;-71
2024/02/03 07:47:12;;;;;;;47.25;8.57;;;;;;;6.11;100.00;100084.50;5059077;28;20111;-69
2024/02/03 07:49:37;;;;;;;45.65;7.88;;;;;;;6.10;100.00;100112.25;5059830;28;20021;-70
2024/02/03 07:52:03;;;;;;;47.05;7.35;;;;;;;5.98;100.00;100061.13;5060144;28;20410;-70
2024/02/03 07:54:29;;;;;;;45.78;7.70;;;;;;;6.13;100.00;100071.81;5059811;28;20074;-70
2024/02/03 07:56:54;;;;;;;56.53;7.85;;;;;;;6.10;100.00;100094.38;5059867;28;20389;-71
2024/02/03 07:59:19;;;;;;;63.80;8.55;;;;;;;6.08;100.00;100077.69;5058726;28;20131;-69
2024/02/03 08:01:46;;;;;;;44.63;6.97;;;;;;;5.97;100.00;100080.84;5059697;28;20032;-69
2024/02/03 08:04:11;;;;;;;54.70;8.93;;;;;;;6.14;100.00;100091.31;5059877;28;20029;-73
2024/02/03 08:06:37;;;;;;;50.35;9.60;;;;;;;6.14;100.00;100089.47;5058528;28;20036;-70
2024/02/03 08:09:03;;;;;;;56.72;8.57;;;;;;;6.12;100.00;100104.84;5041545;28;20080;-70
2024/02/03 08:11:28;;;;;;;61.22;9.25;;;;;;;6.12;100.00;100107.50;5058862;28;20039;-72
2024/02/03 08:13:55;;;;;;;61.00;11.07;;;;;;;6.14;100.00;100085.97;5059582;28;20040;-73
2024/02/03 08:16:21;;;;;;;55.38;9.02;;;;;;;6.13;100.00;100103.03;5058167;28;20128;-73
2024/02/03 08:18:46;;;;;;;50.40;9.45;;;;;;;6.17;100.00;100112.31;5062996;28;20073;-72
2024/02/03 08:21:12;;;;;;;60.78;9.50;;;;;;;6.12;100.00;100099.50;5064156;28;20032;-71
2024/02/03 08:23:37;;;;;;;51.75;8.43;;;;;;;6.03;100.00;100077.44;5064533;28;20106;-74
2024/02/03 08:26:03;;;;;;;52.55;9.27;;;;;;;6.21;100.00;100097.56;5065619;28;20033;-70
2024/02/03 08:28:28;;;;;;;47.28;9.50;;;;;;;6.25;100.00;100105.00;5066408;28;20021;-71
2024/02/03 08:30:54;;;;;;;63.80;10.80;;;;;;;6.23;100.00;100128.44;5047669;28;20037;-70
2024/02/03 08:33:19;;;;;;;59.40;9.02;;;;;;;6.17;100.00;100088.28;5065519;28;20029;-70
2024/02/03 08:35:46;;;;;;;35.25;7.43;;;;;;;6.22;100.00;100088.53;5066427;28;20163;-71
2024/02/03 08:38:12;;;;;;;53.47;8.95;;;;;;;6.22;100.00;100097.38;5063415;28;20025;-73
2024/02/03 08:40:38;;;;;;;56.63;9.02;;;;;;;6.21;100.00;100094.88;5042952;28;20082;-70
2024/02/03 08:43:04;;;;;;;57.45;9.55;;;;;;;6.16;100.00;100078.59;5059778;28;20020;-69
2024/02/03 08:45:29;;;;;;;57.42;9.35;;;;;;;6.19;100.00;100097.75;5057425;28;20067;-69
2024/02/03 08:47:55;;;;;;;61.92;9.32;;;;;;;6.08;100.00;100080.34;5058711;28;20037;-71
2024/02/03 08:50:20;;;;;;;46.30;9.32;;;;;;;6.29;100.00;100098.28;5059014;28;20021;-69
2024/02/03 08:52:46;;;;;;;51.33;9.35;;;;;;;6.18;100.00;100109.44;5058313;28;20033;-71
2024/02/03 08:55:12;;;;;;;64.40;11.05;;;;;;;6.19;100.00;100100.44;5058336;28;20538;-69
2024/02/03 08:57:38;;;;;;;53.65;8.55;;;;;;;6.25;100.00;100123.69;5058710;28;20033;-70
2024/02/03 09:00:04;;;;;;;57.35;10.43;;;;;;;6.25;100.00;100126.38;5041968;28;20029;-70
2024/02/03 09:02:32;;;;;;;80.93;11.63;;;;;;;6.22;100.00;100129.41;5045413;28;20051;-70
2024/02/03 09:04:58;;;;;;;51.72;9.05;;;;;;;6.23;100.00;100131.09;5046403;28;20029;-69
2024/02/03 09:07:23;;;;;;;53.65;8.48;;;;;;;6.25;100.00;100136.25;5062503;28;20496;-70
2024/02/03 09:09:49;;;;;;;45.00;7.72;;;;;;;6.25;100.00;100133.56;5063378;28;20033;-70
2024/02/03 09:12:14;;;;;;;57.25;10.23;;;;;;;6.27;100.00;100135.03;5061900;28;20036;-70
2024/02/03 09:14:39;;;;;;;61.47;10.65;;;;;;;6.23;100.00;100141.78;5063891;28;20036;-71
2024/02/03 09:17:05;;;;;;;64.13;12.60;;;;;;;6.24;100.00;100150.63;5046198;28;20128;-70
2024/02/03 09:19:30;;;;;;;61.58;10.02;;;;;;;6.24;100.00;100158.63;5063395;28;20052;-70
2024/02/03 09:21:56;;;;;;;47.47;7.85;;;;;;;6.19;100.00;100164.56;5045900;28;20119;-69
2024/02/03 09:24:21;;;;;;;58.78;10.40;;;;;;;6.18;100.00;100156.72;5045345;28;20052;-69
2024/02/03 09:26:49;;;;;;;69.80;12.07;;;;;;;6.07;100.00;100145.47;5062825;28;20033;-69
2024/02/03 09:29:15;;;;;;;57.67;9.25;;;;;;;6.22;100.00;100184.69;5063313;28;20271;-70
2024/02/03 09:31:41;;;;;;;59.40;10.18;;;;;;;6.21;100.00;100178.53;5062437;28;20033;-69
2024/02/03 09:34:06;;;;;;;66.03;11.20;;;;;;;6.28;100.00;100178.63;5062046;28;20128;-70
2024/02/03 09:36:32;;;;;;;68.38;11.32;;;;;;;6.35;100.00;100176.84;5064025;28;20083;-69
2024/02/03 09:38:58;;;;;;;59.95;11.10;;;;;;;6.19;100.00;100174.38;5063291;28;20166;-69
2024/02/03 09:41:24;;;;;;;53.92;10.02;;;;;;;6.35;100.00;100185.69;5062247;28;20025;-71
2024/02/03 09:43:50;;;;;;;52.08;9.82;;;;;;;6.40;100.00;100185.16;5062091;28;20050;-70
2024/02/03 09:46:17;;;;;;;66.60;9.40;;;;;;;6.36;100.00;100186.53;5061927;28;20037;-72
2024/02/03 09:48:42;;;;;;;59.40;8.55;;;;;;;6.43;100.00;100183.94;5062160;28;20037;-69
2024/02/03 09:51:07;;;;;;;57.08;10.65;;;;;;;6.39;100.00;100196.84;5043298;28;20468;-67
2024/02/03 09:53:33;;;;;;;57.80;11.82;;;;;;;6.33;100.00;100157.53;5060863;28;20033;-68
2024/02/03 09:55:58;;;;;;;53.08;8.90;;;;;;;6.28;100.00;100183.97;5059931;28;20036;-68
2024/02/03 09:58:25;;;;;;;55.10;8.35;;;;;;;6.45;100.00;100200.59;5060846;28;20089;-69
2024/02/03 10:00:52;;;;;;;72.80;11.95;;;;;;;6.45;100.00;100204.09;5062020;28;20036;-68
2024/02/03 10:03:19;;;;;;;67.15;10.43;;;;;;;6.37;100.00;100196.22;5059877;28;20028;-68
2024/02/03 10:05:44;;;;;;;67.20;10.77;;;;;;;6.46;100.00;100221.00;5061397;28;20075;-68
2024/02/03 10:08:10;;;;;;;50.15;8.55;;;;;;;6.38;100.00;100208.53;5060318;28;20040;-68
2024/02/03 10:10:35;;;;;;;61.53;9.43;;;;;;;6.44;100.00;100210.47;5060903;28;20025;-69
2024/02/03 10:13:04;;;;;;;71.95;10.82;;;;;;;6.49;100.00;100217.91;5061063;28;20107;-68
2024/02/03 10:15:31;;;;;;;43.53;7.50;;;;;;;6.49;100.00;100228.59;5060230;28;20067;-68
2024/02/03 10:17:58;;;;;;;58.35;10.23;;;;;;;6.50;100.00;100223.09;5061011;28;20049;-68
2024/02/03 10:20:23;;;;;;;56.40;9.13;;;;;;;6.49;100.00;100215.25;5058801;28;20059;-68
2024/02/03 10:22:48;;;;;;;64.60;10.07;;;;;;;6.50;100.00;100206.22;5059036;28;20029;-68
2024/02/03 10:25:14;;;;;;;55.80;10.25;;;;;;;6.53;100.00;100219.22;5061345;28;20060;-68
2024/02/03 10:27:39;;;;;;;56.63;9.15;;;;;;;6.54;100.00;100205.66;5061090;28;20036;-69
2024/02/03 10:30:05;;;;;;;61.50;10.38;;;;;;;6.57;100.00;100221.31;5059499;28;20033;-69
2024/02/03 10:32:30;;;;;;;54.33;9.35;;;;;;;6.52;100.00;100226.41;5059132;28;20391;-69
2024/02/03 10:34:56;;;;;;;49.63;9.43;;;;;;;6.44;100.00;100221.16;5059171;28;20115;-68
2024/02/03 10:37:21;;;;;;;52.35;8.55;;;;;;;6.53;100.00;100246.78;5059660;28;20087;-68
2024/02/03 10:39:47;;;;;;;58.42;10.85;;;;;;;6.45;100.00;100236.19;5059535;28;20040;-67
2024/02/03 10:42:19;;;;;;;45.85;7.80;;;;;;;6.48;100.00;100246.50;5059044;28;20025;-68
2024/02/03 10:44:47;;;;;;;52.28;8.18;;;;;;;6.53;100.00;100256.66;5043331;28;20034;-68
2024/02/03 10:47:12;;;;;;;50.40;7.40;;;;;;;6.35;100.00;100243.66;5060454;28;20057;-67
2024/02/03 10:49:43;;;;;;;38.35;7.47;;;;;;;6.45;100.00;100238.84;5060308;28;20029;-68
2024/02/03 10:52:10;;;;;;;56.58;9.32;;;;;;;6.47;100.00;100260.06;5061868;28;20021;-68
2024/02/03 10:54:36;;;;;;;40.83;7.13;;;;;;;6.38;100.00;100223.75;5061833;28;20040;-67
2024/02/03 10:57:05;;;;;;;38.22;6.85;;;;;;;6.47;100.00;100244.03;5060791;28;20059;-67
2024/02/03 10:59:31;;;;;;;41.95;7.43;;;;;;;6.45;100.00;100260.22;5075266;28;20479;-68
2024/02/03 11:01:56;;;;;;;44.50;6.95;;;;;;;6.53;100.00;100256.66;5059507;28;20043;-69
2024/02/03 11:04:22;;;;;;;52.05;9.43;;;;;;;6.48;100.00;100253.69;5059383;28;20108;-68
2024/02/03 11:06:49;;;;;;;42.33;6.57;;;;;;;6.47;100.00;100271.56;5058990;28;20090;-68
2024/02/03 11:09:20;;;;;;;36.95;6.82;;;;;;;6.52;100.00;100281.69;5058334;28;20083;-68